createdAt,value
2018-10-21T00:00:17.787Z,7.70
2018-10-21T00:02:47.944Z,7.60
2018-10-21T00:05:17.094Z,7.50
2018-10-21T00:07:46.138Z,7.50
2018-10-21T00:10:15.177Z,7.40
2018-10-21T00:12:44.154Z,7.40
2018-10-21T00:15:13.317Z,7.50
2018-10-21T00:17:42.226Z,7.50
2018-10-21T00:20:11.245Z,7.50
2018-10-21T00:22:40.306Z,7.50
2018-10-21T00:25:09.379Z,7.50
2018-10-21T00:27:38.526Z,7.40
2018-10-21T00:30:07.793Z,7.50
2018-10-21T00:32:42.142Z,7.40
2018-10-21T00:35:11.158Z,7.40
2018-10-21T00:37:40.317Z,7.40
2018-10-21T00:40:09.382Z,7.50
2018-10-21T00:42:38.567Z,7.40
2018-10-21T00:45:08.225Z,7.30
2018-10-21T00:47:37.306Z,7.40
2018-10-21T00:50:07.185Z,7.40
2018-10-21T00:52:36.231Z,7.40
2018-10-21T00:55:06.234Z,7.40
2018-10-21T00:57:35.248Z,7.30
2018-10-21T01:00:05.141Z,7.40
2018-10-21T01:02:34.213Z,7.20
2018-10-21T01:05:03.252Z,7.30
2018-10-21T01:07:32.327Z,7.30
2018-10-21T01:10:01.443Z,7.30
2018-10-21T01:12:30.458Z,7.30
2018-10-21T01:14:59.432Z,7.30
2018-10-21T01:17:28.451Z,7.30
2018-10-21T01:19:57.567Z,7.30
2018-10-21T01:22:26.659Z,7.20
2018-10-21T01:24:55.722Z,7.20
2018-10-21T01:27:24.720Z,7.20
2018-10-21T01:29:53.727Z,7.20
2018-10-21T01:32:22.756Z,7.30
2018-10-21T01:34:51.879Z,7.20
2018-10-21T01:37:20.931Z,7.20
2018-10-21T01:40:54.710Z,7.20
2018-10-21T01:43:24.932Z,7.20
2018-10-21T01:45:53.926Z,7.30
2018-10-21T01:48:23.946Z,7.30
2018-10-21T01:50:52.989Z,7.30
2018-10-21T01:53:22.474Z,7.30
2018-10-21T01:55:51.509Z,7.20
2018-10-21T01:58:20.634Z,7.30
2018-10-21T02:00:49.650Z,7.30
2018-10-21T02:03:18.781Z,7.30
2018-10-21T02:05:48.093Z,7.40
2018-10-21T02:08:17.141Z,7.40
2018-10-21T02:10:46.290Z,7.30
2018-10-21T02:13:15.262Z,7.40
2018-10-21T02:15:44.378Z,7.40
2018-10-21T02:18:13.366Z,7.30
2018-10-21T02:20:42.338Z,7.30
2018-10-21T02:23:11.403Z,7.30
2018-10-21T02:25:40.422Z,7.30
2018-10-21T02:28:09.465Z,7.30
2018-10-21T02:30:38.419Z,7.40
2018-10-21T02:33:07.506Z,7.30
2018-10-21T02:35:36.477Z,7.30
2018-10-21T02:38:05.767Z,7.30
2018-10-21T02:41:44.650Z,7.30
2018-10-21T02:44:15.954Z,7.30
2018-10-21T02:46:45.631Z,7.30
2018-10-21T02:49:15.370Z,7.30
2018-10-21T02:51:48.614Z,7.30
2018-10-21T02:54:22.128Z,7.30
2018-10-21T02:56:51.246Z,7.30
2018-10-21T02:59:20.438Z,7.20
2018-10-21T03:01:49.533Z,7.20
2018-10-21T03:04:18.931Z,7.20
2018-10-21T03:06:48.145Z,7.20
2018-10-21T03:09:17.199Z,7.30
2018-10-21T03:11:46.186Z,7.30
2018-10-21T03:14:15.179Z,7.30
2018-10-21T03:16:44.194Z,7.30
2018-10-21T03:19:13.214Z,7.20
2018-10-21T03:21:42.172Z,7.20
2018-10-21T03:24:11.234Z,7.20
2018-10-21T03:26:40.317Z,7.10
2018-10-21T03:29:09.380Z,7.10
2018-10-21T03:31:38.461Z,7.10
2018-10-21T03:34:07.579Z,7.10
2018-10-21T03:36:36.550Z,7.10
2018-10-21T03:39:07.583Z,7.20
2018-10-21T03:41:36.747Z,7.10
2018-10-21T03:44:05.792Z,7.20
2018-10-21T03:46:34.767Z,7.20
2018-10-21T03:49:03.891Z,7.10
2018-10-21T03:51:32.957Z,7.10
2018-10-21T03:54:02.065Z,7.10
2018-10-21T03:56:31.053Z,7.20
2018-10-21T03:59:00.078Z,7.20
2018-10-21T04:01:29.171Z,7.20
2018-10-21T04:03:58.173Z,7.20
2018-10-21T04:06:27.164Z,7.20
2018-10-21T04:08:56.183Z,7.20
2018-10-21T04:11:25.207Z,7.20
2018-10-21T04:13:54.267Z,7.20
2018-10-21T04:16:23.405Z,7.20
2018-10-21T04:18:52.533Z,7.20
2018-10-21T04:21:21.540Z,7.20
2018-10-21T04:23:50.570Z,7.20
2018-10-21T04:26:20.210Z,7.20
2018-10-21T04:28:49.222Z,7.30
2018-10-21T04:31:18.247Z,7.30
2018-10-21T04:33:47.362Z,7.20
2018-10-21T04:36:20.857Z,7.10
2018-10-21T04:40:01.110Z,7.20
2018-10-21T04:42:30.317Z,7.30
2018-10-21T04:44:59.722Z,7.20
2018-10-21T04:47:29.126Z,7.10
2018-10-21T04:49:58.117Z,7.10
2018-10-21T04:52:27.883Z,7.10
2018-10-21T04:55:01.167Z,7.10
2018-10-21T04:57:30.171Z,7.10
2018-10-21T04:59:59.266Z,7.00
2018-10-21T05:02:29.171Z,7.00
2018-10-21T05:04:58.138Z,7.00
2018-10-21T05:07:27.171Z,7.00
2018-10-21T05:09:56.183Z,7.00
2018-10-21T05:12:25.213Z,6.90
2018-10-21T05:17:13.469Z,6.90
2018-10-21T05:19:42.554Z,7.00
2018-10-21T05:22:11.621Z,7.00
2018-10-21T05:24:40.847Z,7.00
2018-10-21T05:27:09.873Z,7.00
2018-10-21T05:29:38.842Z,6.90
2018-10-21T05:32:07.933Z,6.80
2018-10-21T05:34:36.923Z,6.80
2018-10-21T05:37:06.266Z,6.80
2018-10-21T05:39:35.314Z,6.80
2018-10-21T05:42:04.339Z,6.70
2018-10-21T05:44:33.406Z,6.70
2018-10-21T05:47:02.496Z,6.70
2018-10-21T05:49:31.509Z,6.70
2018-10-21T05:52:00.572Z,6.60
2018-10-21T05:54:29.579Z,6.60
2018-10-21T05:56:58.599Z,6.60
2018-10-21T05:59:27.600Z,6.60
2018-10-21T06:01:56.724Z,6.60
2018-10-21T06:04:25.713Z,6.60
2018-10-21T06:06:54.841Z,6.60
2018-10-21T06:09:23.819Z,6.50
2018-10-21T06:11:52.859Z,6.60
2018-10-21T06:14:22.878Z,6.60
2018-10-21T06:16:57.235Z,6.60
2018-10-21T06:19:31.303Z,6.50
2018-10-21T06:22:00.546Z,6.50
2018-10-21T06:24:29.522Z,6.40
2018-10-21T06:26:59.780Z,6.40
2018-10-21T06:29:29.872Z,6.30
2018-10-21T06:31:58.912Z,6.30
2018-10-21T06:34:27.934Z,6.30
2018-10-21T06:36:56.950Z,6.40
2018-10-21T06:39:26.001Z,6.40
2018-10-21T06:41:55.034Z,6.50
2018-10-21T06:44:24.111Z,6.50
2018-10-21T06:46:53.152Z,6.60
2018-10-21T06:49:22.277Z,6.70
2018-10-21T06:51:51.454Z,6.70
2018-10-21T06:54:20.524Z,6.80
2018-10-21T06:56:50.030Z,6.70
2018-10-21T06:59:18.870Z,6.80
2018-10-21T07:01:47.863Z,6.90
2018-10-21T07:04:16.945Z,6.90
2018-10-21T07:06:45.989Z,6.90
2018-10-21T07:09:15.047Z,6.90
2018-10-21T07:11:44.134Z,7.00
2018-10-21T07:14:13.128Z,7.10
2018-10-21T07:16:42.450Z,7.20
2018-10-21T07:19:11.298Z,7.20
2018-10-21T07:21:41.754Z,7.40
2018-10-21T07:24:10.810Z,7.50
2018-10-21T07:26:39.827Z,7.60
2018-10-21T07:29:09.025Z,7.70
2018-10-21T07:31:38.044Z,7.70
2018-10-21T07:34:07.154Z,7.80
2018-10-21T07:36:36.089Z,7.90
2018-10-21T07:39:07.690Z,7.90
2018-10-21T07:41:36.701Z,8.00
2018-10-21T07:44:05.745Z,8.00
2018-10-21T07:46:34.893Z,8.10
2018-10-21T07:49:04.022Z,8.20
2018-10-21T07:51:33.090Z,8.20
2018-10-21T07:54:02.206Z,8.30
2018-10-21T07:56:31.239Z,8.30
2018-10-21T07:59:00.350Z,8.40
2018-10-21T08:01:29.536Z,8.50
2018-10-21T08:03:58.560Z,8.50
2018-10-21T08:06:38.946Z,8.70
2018-10-21T08:09:10.287Z,8.70
2018-10-21T08:11:39.348Z,8.80
2018-10-21T08:14:08.329Z,8.90
2018-10-21T08:16:37.412Z,9.00
2018-10-21T08:19:06.520Z,9.10
2018-10-21T08:21:35.550Z,9.20
2018-10-21T08:24:04.638Z,9.30
2018-10-21T08:26:33.795Z,9.30
2018-10-21T08:29:02.889Z,9.40
2018-10-21T08:31:31.879Z,9.50
2018-10-21T08:36:30.240Z,9.70
2018-10-21T08:38:59.263Z,9.90
2018-10-21T08:41:28.250Z,10.10
2018-10-21T08:43:57.297Z,10.20
2018-10-21T08:46:26.420Z,10.30
2018-10-21T08:48:55.396Z,10.40
2018-10-21T08:51:24.812Z,10.50
2018-10-21T08:53:53.809Z,10.60
2018-10-21T08:56:22.808Z,10.70
2018-10-21T08:58:51.842Z,10.80
2018-10-21T09:01:20.946Z,10.90
2018-10-21T09:03:49.990Z,11.00
2018-10-21T09:06:19.014Z,11.20
2018-10-21T09:08:48.056Z,11.20
2018-10-21T09:11:17.094Z,11.40
2018-10-21T09:13:46.151Z,11.50
2018-10-21T09:16:15.382Z,11.50
2018-10-21T09:18:44.431Z,11.60
2018-10-21T09:21:13.455Z,11.60
2018-10-21T09:23:42.599Z,11.70
2018-10-21T09:26:11.809Z,11.90
2018-10-21T09:31:15.956Z,12.10
2018-10-21T09:33:45.337Z,12.30
2018-10-21T09:36:14.462Z,12.40
2018-10-21T09:38:43.601Z,12.50
2018-10-21T09:41:12.822Z,12.50
2018-10-21T09:43:42.175Z,12.60
2018-10-21T09:46:11.736Z,12.70
2018-10-21T09:48:40.764Z,12.90
2018-10-21T09:51:09.842Z,13.00
2018-10-21T09:53:38.909Z,13.10
2018-10-21T09:56:07.949Z,13.20
2018-10-21T09:58:37.007Z,13.40
2018-10-21T10:01:12.410Z,13.50
2018-10-21T10:03:41.595Z,13.60
2018-10-21T10:06:10.823Z,13.70
2018-10-21T10:08:40.220Z,13.90
2018-10-21T10:11:10.479Z,13.90
2018-10-21T10:13:39.555Z,14.10
2018-10-21T10:16:08.700Z,14.20
2018-10-21T10:18:38.381Z,14.10
2018-10-21T10:21:07.766Z,14.10
2018-10-21T10:23:37.109Z,14.10
2018-10-21T10:26:06.087Z,14.10
2018-10-21T10:28:35.090Z,14.10
2018-10-21T10:31:04.186Z,14.20
2018-10-21T10:33:33.370Z,14.30
2018-10-21T10:36:02.592Z,14.40
2018-10-21T10:38:31.606Z,14.50
2018-10-21T10:41:00.675Z,14.50
2018-10-21T10:43:29.743Z,14.70
2018-10-21T10:45:58.872Z,14.80
2018-10-21T10:48:27.914Z,14.80
2018-10-21T10:50:56.998Z,15.00
2018-10-21T10:53:26.262Z,14.90
2018-10-21T10:55:55.339Z,14.90
2018-10-21T10:58:24.421Z,14.70
2018-10-21T11:00:53.643Z,14.40
2018-10-21T11:03:22.586Z,14.20
2018-10-21T11:05:51.658Z,14.20
2018-10-21T11:08:20.721Z,14.30
2018-10-21T11:10:49.773Z,14.50
2018-10-21T11:13:18.837Z,14.70
2018-10-21T11:15:47.881Z,14.80
2018-10-21T11:18:16.993Z,14.90
2018-10-21T11:20:46.097Z,14.80
2018-10-21T11:23:15.130Z,14.50
2018-10-21T11:25:44.332Z,14.50
2018-10-21T11:28:13.584Z,14.40
2018-10-21T11:30:42.504Z,14.30
2018-10-21T11:33:11.720Z,14.60
2018-10-21T11:35:40.900Z,14.70
2018-10-21T11:38:10.070Z,14.60
2018-10-21T11:40:39.505Z,14.80
2018-10-21T11:43:08.733Z,14.90
2018-10-21T11:45:37.834Z,14.80
2018-10-21T11:48:06.814Z,15.00
2018-10-21T11:50:36.126Z,15.30
2018-10-21T11:53:05.459Z,15.20
2018-10-21T11:55:38.188Z,15.40
2018-10-21T11:58:09.055Z,16.10
2018-10-21T12:00:38.069Z,16.40
2018-10-21T12:03:07.657Z,16.80
2018-10-21T12:05:36.685Z,17.00
2018-10-21T12:08:05.798Z,17.90
2018-10-21T12:10:34.788Z,18.40
2018-10-21T12:13:03.905Z,19.00
2018-10-21T12:15:32.996Z,19.30
2018-10-21T12:18:01.993Z,19.10
2018-10-21T12:20:31.009Z,19.50
2018-10-21T12:23:00.277Z,19.90
2018-10-21T12:25:29.149Z,19.50
2018-10-21T12:27:58.223Z,18.90
2018-10-21T12:30:27.191Z,18.40
2018-10-21T12:32:56.221Z,18.20
2018-10-21T12:35:25.255Z,17.30
2018-10-21T12:37:54.290Z,16.90
2018-10-21T12:40:23.342Z,16.40
2018-10-21T12:42:52.376Z,16.40
2018-10-21T12:45:21.379Z,16.30
2018-10-21T12:47:50.402Z,16.30
2018-10-21T12:50:19.404Z,16.00
2018-10-21T12:52:48.433Z,15.60
2018-10-21T12:55:17.495Z,15.50
2018-10-21T12:57:46.419Z,15.40
2018-10-21T13:00:15.414Z,15.50
2018-10-21T13:02:44.460Z,15.50
2018-10-21T13:05:13.502Z,15.50
2018-10-21T13:07:42.619Z,15.60
2018-10-21T13:10:11.900Z,15.60
2018-10-21T13:12:40.912Z,15.70
2018-10-21T13:15:10.282Z,15.50
2018-10-21T13:17:39.347Z,15.20
2018-10-21T13:20:08.470Z,15.20
2018-10-21T13:22:37.607Z,15.30
2018-10-21T13:25:06.674Z,15.20
2018-10-21T13:27:35.882Z,15.30
2018-10-21T13:30:05.550Z,15.20
2018-10-21T13:32:34.588Z,15.10
2018-10-21T13:35:04.857Z,15.00
2018-10-21T13:37:34.023Z,15.00
2018-10-21T13:40:03.225Z,14.90
2018-10-21T13:42:32.210Z,14.90
2018-10-21T13:45:01.198Z,14.90
2018-10-21T13:47:30.328Z,14.70
2018-10-21T13:49:59.705Z,14.60
2018-10-21T13:52:28.793Z,14.60
2018-10-21T13:54:57.951Z,14.60
2018-10-21T13:57:27.063Z,14.60
2018-10-21T13:59:56.063Z,14.70
2018-10-21T14:02:25.281Z,14.70
2018-10-21T14:04:54.344Z,14.70
2018-10-21T14:07:23.514Z,14.70
2018-10-21T14:09:52.497Z,14.70
2018-10-21T14:12:21.515Z,14.60
2018-10-21T14:14:50.656Z,14.70
2018-10-21T14:17:19.938Z,14.60
2018-10-21T14:19:49.033Z,14.70
2018-10-21T14:22:18.157Z,14.60
2018-10-21T14:24:47.313Z,14.50
2018-10-21T14:27:16.403Z,14.50
2018-10-21T14:29:45.478Z,14.50
2018-10-21T14:32:14.636Z,14.50
2018-10-21T14:34:43.988Z,14.30
2018-10-21T14:37:13.062Z,14.40
2018-10-21T14:39:42.072Z,14.30
2018-10-21T14:42:11.254Z,14.30
2018-10-21T14:44:40.162Z,14.30
2018-10-21T14:47:09.290Z,14.30
2018-10-21T14:49:38.411Z,14.30
2018-10-21T14:52:07.573Z,14.30
2018-10-21T14:54:36.594Z,14.30
2018-10-21T14:57:05.620Z,14.20
2018-10-21T14:59:34.638Z,14.20
2018-10-21T15:02:03.734Z,14.20
2018-10-21T15:04:32.799Z,14.20
2018-10-21T15:07:02.002Z,14.20
2018-10-21T15:09:30.997Z,14.10
2018-10-21T15:12:00.062Z,14.10
2018-10-21T15:14:29.251Z,14.10
2018-10-21T15:16:58.284Z,14.00
2018-10-21T15:19:27.486Z,14.00
2018-10-21T15:21:56.522Z,14.00
2018-10-21T15:24:25.470Z,14.00
2018-10-21T15:26:54.739Z,14.00
2018-10-21T15:29:23.895Z,14.00
2018-10-21T15:31:52.899Z,13.90
2018-10-21T15:34:21.927Z,13.90
2018-10-21T15:36:50.970Z,13.90
2018-10-21T15:39:20.579Z,13.90
2018-10-21T15:41:49.667Z,13.80
2018-10-21T15:44:18.867Z,13.70
2018-10-21T15:46:47.999Z,13.70
2018-10-21T15:49:17.075Z,13.60
2018-10-21T15:51:46.244Z,13.50
2018-10-21T15:54:15.579Z,13.40
2018-10-21T15:56:45.259Z,13.40
2018-10-21T15:59:14.586Z,13.30
2018-10-21T16:01:43.683Z,13.30
2018-10-21T16:04:12.768Z,13.30
2018-10-21T16:06:41.954Z,13.20
2018-10-21T16:09:12.766Z,13.10
2018-10-21T16:11:41.983Z,13.10
2018-10-21T16:14:11.228Z,13.00
2018-10-21T16:16:40.618Z,12.80
2018-10-21T16:19:09.819Z,12.80
2018-10-21T16:21:39.134Z,12.80
2018-10-21T16:24:08.167Z,12.60
2018-10-21T16:26:37.583Z,12.60
2018-10-21T16:29:06.622Z,12.60
2018-10-21T16:31:35.699Z,12.50
2018-10-21T16:34:05.128Z,12.40
2018-10-21T16:36:34.210Z,12.50
2018-10-21T16:39:04.759Z,12.40
2018-10-21T16:41:34.402Z,12.40
2018-10-21T16:44:03.614Z,12.30
2018-10-21T16:46:32.952Z,12.20
2018-10-21T16:49:02.073Z,12.10
2018-10-21T16:51:31.225Z,12.00
2018-10-21T16:54:00.267Z,12.00
2018-10-21T16:56:29.617Z,11.90
2018-10-21T16:58:58.729Z,11.80
2018-10-21T17:01:27.895Z,11.80
2018-10-21T17:03:57.142Z,11.80
2018-10-21T17:06:26.419Z,11.70
2018-10-21T17:08:55.865Z,11.70
2018-10-21T17:11:24.997Z,11.70
2018-10-21T17:13:54.332Z,11.60
2018-10-21T17:16:23.678Z,11.60
2018-10-21T17:18:52.809Z,11.50
2018-10-21T17:21:22.297Z,11.40
2018-10-21T17:23:51.382Z,11.20
2018-10-21T17:26:21.283Z,11.20
2018-10-21T17:28:50.391Z,11.20
2018-10-21T17:31:19.562Z,11.10
2018-10-21T17:33:48.791Z,11.10
2018-10-21T17:36:17.859Z,10.90
2018-10-21T17:38:47.056Z,10.90
2018-10-21T17:41:16.351Z,10.90
2018-10-21T17:43:52.105Z,10.80
2018-10-21T17:46:21.556Z,10.70
2018-10-21T17:48:50.967Z,10.60
2018-10-21T17:51:20.255Z,10.70
2018-10-21T17:53:49.461Z,10.50
2018-10-21T17:56:18.734Z,10.50
2018-10-21T17:58:47.961Z,10.50
2018-10-21T18:01:17.076Z,10.40
2018-10-21T18:03:46.097Z,10.30
2018-10-21T18:06:15.089Z,10.10
2018-10-21T18:08:44.182Z,10.10
2018-10-21T18:11:13.457Z,10.20
2018-10-21T18:13:42.727Z,10.00
2018-10-21T18:16:11.847Z,10.00
2018-10-21T18:18:41.043Z,10.10
2018-10-21T18:21:10.237Z,10.10
2018-10-21T18:23:39.448Z,10.00
2018-10-21T18:26:08.635Z,9.90
2018-10-21T18:28:37.797Z,9.70
2018-10-21T18:31:06.920Z,9.80
2018-10-21T18:33:35.875Z,9.80
2018-10-21T18:36:05.019Z,9.80
2018-10-21T18:38:34.080Z,9.60
2018-10-21T18:41:03.305Z,9.60
2018-10-21T18:43:32.317Z,9.20
2018-10-21T18:46:01.389Z,9.30
2018-10-21T18:48:30.702Z,9.30
2018-10-21T18:50:59.679Z,9.30
2018-10-21T18:53:28.977Z,9.20
2018-10-21T18:55:58.701Z,9.10
2018-10-21T18:58:27.790Z,9.00
2018-10-21T19:00:57.502Z,8.70
2018-10-21T19:03:26.579Z,8.80
2018-10-21T19:05:55.818Z,9.00
2018-10-21T19:08:25.018Z,9.10
2018-10-21T19:10:54.060Z,9.10
2018-10-21T19:13:23.240Z,9.10
2018-10-21T19:15:52.419Z,9.10
2018-10-21T19:18:21.722Z,9.00
2018-10-21T19:20:50.866Z,9.00
2018-10-21T19:23:20.114Z,8.80
2018-10-21T19:25:49.231Z,8.70
2018-10-21T19:28:18.385Z,8.70
2018-10-21T19:30:47.422Z,8.80
2018-10-21T19:33:16.522Z,8.70
2018-10-21T19:35:45.630Z,8.70
2018-10-21T19:38:14.721Z,8.60
2018-10-21T19:40:43.748Z,8.40
2018-10-21T19:43:12.994Z,8.50
2018-10-21T19:45:41.950Z,8.40
2018-10-21T19:48:11.224Z,8.40
2018-10-21T19:50:40.394Z,8.20
2018-10-21T19:53:09.445Z,8.30
2018-10-21T19:55:38.494Z,8.30
2018-10-21T19:58:07.689Z,8.20
2018-10-21T20:00:36.817Z,8.20
2018-10-21T20:03:05.877Z,8.20
2018-10-21T20:05:35.015Z,8.00
2018-10-21T20:08:04.169Z,8.00
2018-10-21T20:10:33.233Z,7.90
2018-10-21T20:13:02.387Z,8.00
2018-10-21T20:15:31.716Z,8.00
2018-10-21T20:18:00.765Z,8.00
2018-10-21T20:20:29.866Z,7.90
2018-10-21T20:22:58.949Z,7.80
2018-10-21T20:25:28.175Z,7.70
2018-10-21T20:27:57.490Z,7.60
2018-10-21T20:30:26.508Z,7.60
2018-10-21T20:32:55.566Z,7.60
2018-10-21T20:35:24.641Z,7.60
2018-10-21T20:37:53.860Z,7.50
2018-10-21T20:40:22.838Z,7.50
2018-10-21T20:42:51.899Z,7.50
2018-10-21T20:45:20.924Z,7.40
2018-10-21T20:47:50.447Z,7.00
2018-10-21T20:50:19.557Z,7.10
2018-10-21T20:52:48.712Z,7.20
2018-10-21T20:55:17.725Z,7.20
2018-10-21T20:57:46.724Z,7.30
2018-10-21T21:00:15.782Z,7.30
2018-10-21T21:02:45.032Z,7.30
2018-10-21T21:05:14.084Z,7.20
2018-10-21T21:07:43.148Z,7.20
2018-10-21T21:10:12.455Z,7.00
2018-10-21T21:12:41.659Z,7.00
2018-10-21T21:15:11.002Z,7.00
2018-10-21T21:17:39.995Z,6.90
2018-10-21T21:20:09.751Z,6.80
2018-10-21T21:22:38.815Z,6.80
2018-10-21T21:25:08.029Z,6.70
2018-10-21T21:27:37.368Z,6.70
2018-10-21T21:30:07.161Z,6.60
2018-10-21T21:32:36.434Z,6.50
2018-10-21T21:35:06.641Z,6.50
2018-10-21T21:37:36.052Z,6.40
2018-10-21T21:40:06.581Z,6.40
2018-10-21T21:42:35.817Z,6.40
2018-10-21T21:45:05.255Z,6.40
2018-10-21T21:47:34.245Z,6.30
2018-10-21T21:50:03.355Z,6.30
2018-10-21T21:52:32.342Z,6.30
2018-10-21T21:55:01.295Z,6.30
2018-10-21T21:57:30.482Z,6.20
2018-10-21T21:59:59.524Z,6.20
2018-10-21T22:02:28.656Z,6.00
2018-10-21T22:04:57.843Z,6.10
2018-10-21T22:07:26.993Z,6.10
2018-10-21T22:09:56.096Z,5.90
2018-10-21T22:12:25.108Z,5.90
2018-10-21T22:14:54.143Z,5.80
2018-10-21T22:17:23.219Z,5.80
2018-10-21T22:19:52.319Z,5.80
2018-10-21T22:22:21.617Z,5.80
2018-10-21T22:24:50.651Z,5.80
2018-10-21T22:27:19.737Z,5.70
2018-10-21T22:29:48.944Z,5.70
2018-10-21T22:32:17.958Z,5.70
2018-10-21T22:34:46.941Z,5.60
2018-10-21T22:37:16.044Z,5.50
2018-10-21T22:39:45.080Z,5.50
2018-10-21T22:42:14.174Z,5.40
2018-10-21T22:44:43.285Z,5.50
2018-10-21T22:47:12.326Z,5.40
2018-10-21T22:49:41.327Z,5.40
2018-10-21T22:52:10.481Z,5.40
2018-10-21T22:54:39.531Z,5.40
2018-10-21T22:57:13.911Z,5.40
2018-10-21T22:59:43.017Z,5.20
2018-10-21T23:02:12.105Z,5.10
2018-10-21T23:04:41.214Z,5.20
2018-10-21T23:07:10.250Z,5.20
2018-10-21T23:09:39.353Z,5.20
2018-10-21T23:12:08.544Z,5.20
2018-10-21T23:14:38.722Z,5.00
2018-10-21T23:17:07.746Z,5.00
2018-10-21T23:19:44.523Z,5.00
2018-10-21T23:22:13.861Z,5.00
2018-10-21T23:24:42.785Z,5.00
2018-10-21T23:27:12.436Z,4.80
2018-10-21T23:29:42.390Z,4.80
2018-10-21T23:32:11.481Z,4.80
2018-10-21T23:34:40.469Z,4.90
2018-10-21T23:37:09.500Z,4.90
2018-10-21T23:39:38.563Z,4.90
2018-10-21T23:42:07.758Z,4.90
2018-10-21T23:44:36.781Z,5.00
2018-10-21T23:47:05.966Z,4.90
2018-10-21T23:49:41.569Z,4.90
2018-10-21T23:52:10.633Z,4.80
2018-10-21T23:54:39.726Z,4.90
2018-10-21T23:57:08.711Z,4.90
2018-10-21T23:59:37.809Z,5.00
